sensor_id;sensor_type;location;lat;lon;timestamp;P1;durP1;ratioP1;P2;durP2;ratioP2
5343;SDS011;2694;48.954;8.928;2023-07-20T00:02:22;2.90;;;1.30;;
5343;SDS011;2694;48.954;8.928;2023-07-20T00:04:49;2.22;;;1.20;;
5343;SDS011;2694;48.954;8.928;2023-07-20T00:07:17;4.90;;;1.52;;
5343;SDS011;2694;48.954;8.928;2023-07-20T00:09:44;4.00;;;1.80;;
5343;SDS011;2694;48.954;8.928;2023-07-20T00:12:11;3.13;;;1.40;;
5343;SDS011;2694;48.954;8.928;2023-07-20T00:14:38;4.70;;;1.50;;
5343;SDS011;2694;48.954;8.928;2023-07-20T00:17:04;4.72;;;1.58;;
5343;SDS011;2694;48.954;8.928;2023-07-20T00:19:32;3.85;;;1.42;;
5343;SDS011;2694;48.954;8.928;2023-07-20T00:22:00;3.50;;;1.60;;
5343;SDS011;2694;48.954;8.928;2023-07-20T00:24:28;4.20;;;1.48;;
5343;SDS011;2694;48.954;8.928;2023-07-20T00:26:55;4.82;;;1.70;;
5343;SDS011;2694;48.954;8.928;2023-07-20T00:29:21;8.70;;;1.83;;
5343;SDS011;2694;48.954;8.928;2023-07-20T00:31:48;3.42;;;1.40;;
5343;SDS011;2694;48.954;8.928;2023-07-20T00:34:15;3.75;;;1.75;;
5343;SDS011;2694;48.954;8.928;2023-07-20T00:36:42;5.60;;;1.50;;
5343;SDS011;2694;48.954;8.928;2023-07-20T00:39:08;4.60;;;1.80;;
5343;SDS011;2694;48.954;8.928;2023-07-20T00:41:36;2.65;;;1.50;;
5343;SDS011;2694;48.954;8.928;2023-07-20T00:44:04;4.45;;;1.70;;
5343;SDS011;2694;48.954;8.928;2023-07-20T00:46:31;5.15;;;1.75;;
5343;SDS011;2694;48.954;8.928;2023-07-20T00:48:58;5.90;;;1.10;;
5343;SDS011;2694;48.954;8.928;2023-07-20T00:51:26;5.03;;;1.33;;
5343;SDS011;2694;48.954;8.928;2023-07-20T00:53:53;3.87;;;1.40;;
5343;SDS011;2694;48.954;8.928;2023-07-20T00:56:20;3.53;;;1.30;;
5343;SDS011;2694;48.954;8.928;2023-07-20T00:58:49;2.72;;;1.30;;
5343;SDS011;2694;48.954;8.928;2023-07-20T01:01:16;2.75;;;1.10;;
5343;SDS011;2694;48.954;8.928;2023-07-20T01:03:43;2.15;;;1.10;;
5343;SDS011;2694;48.954;8.928;2023-07-20T01:06:14;2.70;;;1.02;;
5343;SDS011;2694;48.954;8.928;2023-07-20T01:08:47;2.40;;;1.00;;
5343;SDS011;2694;48.954;8.928;2023-07-20T01:11:35;3.58;;;1.60;;
5343;SDS011;2694;48.954;8.928;2023-07-20T01:14:06;5.37;;;1.53;;
5343;SDS011;2694;48.954;8.928;2023-07-20T01:16:34;2.65;;;1.25;;
5343;SDS011;2694;48.954;8.928;2023-07-20T01:19:00;2.50;;;1.10;;
5343;SDS011;2694;48.954;8.928;2023-07-20T01:21:31;3.33;;;1.50;;
5343;SDS011;2694;48.954;8.928;2023-07-20T01:27:10;2.10;;;1.10;;
5343;SDS011;2694;48.954;8.928;2023-07-20T01:30:07;3.67;;;1.92;;
5343;SDS011;2694;48.954;8.928;2023-07-20T01:32:52;7.00;;;1.30;;
5343;SDS011;2694;48.954;8.928;2023-07-20T01:35:21;2.22;;;1.30;;
5343;SDS011;2694;48.954;8.928;2023-07-20T01:37:50;2.60;;;1.10;;
5343;SDS011;2694;48.954;8.928;2023-07-20T01:40:17;3.70;;;1.70;;
5343;SDS011;2694;48.954;8.928;2023-07-20T01:42:46;2.97;;;1.40;;
5343;SDS011;2694;48.954;8.928;2023-07-20T01:45:13;4.70;;;1.42;;
5343;SDS011;2694;48.954;8.928;2023-07-20T01:47:40;4.28;;;1.67;;
5343;SDS011;2694;48.954;8.928;2023-07-20T01:50:09;3.85;;;1.30;;
5343;SDS011;2694;48.954;8.928;2023-07-20T01:52:36;7.88;;;1.60;;
5343;SDS011;2694;48.954;8.928;2023-07-20T01:55:03;3.75;;;1.70;;
5343;SDS011;2694;48.954;8.928;2023-07-20T01:57:30;3.85;;;1.50;;
5343;SDS011;2694;48.954;8.928;2023-07-20T01:59:57;4.63;;;1.30;;
5343;SDS011;2694;48.954;8.928;2023-07-20T02:02:27;4.20;;;1.60;;
5343;SDS011;2694;48.954;8.928;2023-07-20T02:04:54;4.28;;;1.70;;
5343;SDS011;2694;48.954;8.928;2023-07-20T02:07:22;5.28;;;2.00;;
5343;SDS011;2694;48.954;8.928;2023-07-20T02:09:49;5.18;;;1.65;;
5343;SDS011;2694;48.954;8.928;2023-07-20T02:12:15;4.47;;;1.88;;
5343;SDS011;2694;48.954;8.928;2023-07-20T02:14:42;7.85;;;1.48;;
5343;SDS011;2694;48.954;8.928;2023-07-20T02:17:09;6.68;;;1.50;;
5343;SDS011;2694;48.954;8.928;2023-07-20T02:19:36;3.63;;;1.50;;
5343;SDS011;2694;48.954;8.928;2023-07-20T02:22:04;4.75;;;1.60;;
5343;SDS011;2694;48.954;8.928;2023-07-20T02:24:32;5.43;;;2.00;;
5343;SDS011;2694;48.954;8.928;2023-07-20T02:26:59;4.53;;;1.90;;
5343;SDS011;2694;48.954;8.928;2023-07-20T02:29:26;2.40;;;1.40;;
5343;SDS011;2694;48.954;8.928;2023-07-20T02:31:53;4.63;;;1.75;;
5343;SDS011;2694;48.954;8.928;2023-07-20T02:34:19;3.20;;;1.42;;
5343;SDS011;2694;48.954;8.928;2023-07-20T02:36:46;5.90;;;1.70;;
5343;SDS011;2694;48.954;8.928;2023-07-20T02:39:13;4.30;;;1.70;;
5343;SDS011;2694;48.954;8.928;2023-07-20T02:41:41;5.65;;;1.90;;
5343;SDS011;2694;48.954;8.928;2023-07-20T02:44:08;3.80;;;1.40;;
5343;SDS011;2694;48.954;8.928;2023-07-20T02:46:34;5.70;;;1.70;;
5343;SDS011;2694;48.954;8.928;2023-07-20T02:49:01;5.90;;;1.58;;
5343;SDS011;2694;48.954;8.928;2023-07-20T02:51:29;4.00;;;1.60;;
5343;SDS011;2694;48.954;8.928;2023-07-20T02:53:56;3.38;;;1.48;;
5343;SDS011;2694;48.954;8.928;2023-07-20T02:56:22;4.47;;;1.60;;
5343;SDS011;2694;48.954;8.928;2023-07-20T02:58:50;5.57;;;1.80;;
5343;SDS011;2694;48.954;8.928;2023-07-20T03:01:18;3.60;;;1.50;;
5343;SDS011;2694;48.954;8.928;2023-07-20T03:03:45;7.00;;;1.80;;
5343;SDS011;2694;48.954;8.928;2023-07-20T03:06:12;3.17;;;1.67;;
5343;SDS011;2694;48.954;8.928;2023-07-20T03:08:39;7.25;;;2.10;;
5343;SDS011;2694;48.954;8.928;2023-07-20T03:11:12;3.20;;;1.60;;
5343;SDS011;2694;48.954;8.928;2023-07-20T03:13:40;6.82;;;1.85;;
5343;SDS011;2694;48.954;8.928;2023-07-20T03:16:08;3.95;;;1.88;;
5343;SDS011;2694;48.954;8.928;2023-07-20T03:18:37;7.03;;;2.00;;
5343;SDS011;2694;48.954;8.928;2023-07-20T03:21:04;5.20;;;2.03;;
5343;SDS011;2694;48.954;8.928;2023-07-20T03:23:31;4.38;;;1.60;;
5343;SDS011;2694;48.954;8.928;2023-07-20T03:25:58;2.97;;;1.60;;
5343;SDS011;2694;48.954;8.928;2023-07-20T03:28:25;3.30;;;1.80;;
5343;SDS011;2694;48.954;8.928;2023-07-20T03:30:55;2.80;;;1.42;;
5343;SDS011;2694;48.954;8.928;2023-07-20T03:33:24;5.20;;;2.10;;
5343;SDS011;2694;48.954;8.928;2023-07-20T03:35:53;3.70;;;2.10;;
5343;SDS011;2694;48.954;8.928;2023-07-20T03:38:20;2.42;;;1.60;;
5343;SDS011;2694;48.954;8.928;2023-07-20T03:40:50;5.30;;;2.00;;
5343;SDS011;2694;48.954;8.928;2023-07-20T03:43:17;4.10;;;1.80;;
5343;SDS011;2694;48.954;8.928;2023-07-20T03:45:44;5.68;;;1.95;;
5343;SDS011;2694;48.954;8.928;2023-07-20T03:48:12;6.30;;;1.63;;
5343;SDS011;2694;48.954;8.928;2023-07-20T03:50:41;5.50;;;1.90;;
5343;SDS011;2694;48.954;8.928;2023-07-20T03:53:08;4.83;;;1.97;;
5343;SDS011;2694;48.954;8.928;2023-07-20T03:55:34;5.88;;;2.70;;
5343;SDS011;2694;48.954;8.928;2023-07-20T03:58:01;3.97;;;1.90;;
5343;SDS011;2694;48.954;8.928;2023-07-20T04:00:28;4.00;;;1.80;;
5343;SDS011;2694;48.954;8.928;2023-07-20T04:02:55;4.35;;;1.73;;
5343;SDS011;2694;48.954;8.928;2023-07-20T04:05:22;4.32;;;2.10;;
5343;SDS011;2694;48.954;8.928;2023-07-20T04:07:50;3.03;;;1.70;;
5343;SDS011;2694;48.954;8.928;2023-07-20T04:10:17;4.90;;;2.28;;
5343;SDS011;2694;48.954;8.928;2023-07-20T04:12:44;4.25;;;1.85;;
5343;SDS011;2694;48.954;8.928;2023-07-20T04:15:12;4.43;;;2.20;;
5343;SDS011;2694;48.954;8.928;2023-07-20T04:17:39;4.20;;;2.00;;
5343;SDS011;2694;48.954;8.928;2023-07-20T04:20:07;7.13;;;2.13;;
5343;SDS011;2694;48.954;8.928;2023-07-20T04:22:34;4.70;;;2.28;;
5343;SDS011;2694;48.954;8.928;2023-07-20T04:25:03;4.65;;;2.17;;
5343;SDS011;2694;48.954;8.928;2023-07-20T04:27:30;3.70;;;2.30;;
5343;SDS011;2694;48.954;8.928;2023-07-20T04:29:56;3.20;;;1.93;;
5343;SDS011;2694;48.954;8.928;2023-07-20T04:32:23;4.40;;;2.00;;
5343;SDS011;2694;48.954;8.928;2023-07-20T04:34:50;3.47;;;2.05;;
5343;SDS011;2694;48.954;8.928;2023-07-20T04:37:17;5.25;;;2.10;;
5343;SDS011;2694;48.954;8.928;2023-07-20T04:39:43;5.70;;;2.15;;
5343;SDS011;2694;48.954;8.928;2023-07-20T04:42:11;3.50;;;2.10;;
5343;SDS011;2694;48.954;8.928;2023-07-20T04:44:38;4.25;;;1.63;;
5343;SDS011;2694;48.954;8.928;2023-07-20T04:47:05;5.47;;;1.93;;
5343;SDS011;2694;48.954;8.928;2023-07-20T04:49:33;5.15;;;2.30;;
5343;SDS011;2694;48.954;8.928;2023-07-20T04:52:00;4.10;;;2.20;;
5343;SDS011;2694;48.954;8.928;2023-07-20T04:54:27;6.43;;;2.10;;
5343;SDS011;2694;48.954;8.928;2023-07-20T04:56:54;5.40;;;1.92;;
5343;SDS011;2694;48.954;8.928;2023-07-20T04:59:22;6.50;;;2.00;;
5343;SDS011;2694;48.954;8.928;2023-07-20T05:01:49;3.80;;;2.15;;
5343;SDS011;2694;48.954;8.928;2023-07-20T05:04:19;4.95;;;2.50;;
5343;SDS011;2694;48.954;8.928;2023-07-20T05:06:46;3.95;;;1.92;;
5343;SDS011;2694;48.954;8.928;2023-07-20T05:09:13;5.07;;;2.05;;
5343;SDS011;2694;48.954;8.928;2023-07-20T05:11:39;2.55;;;1.90;;
5343;SDS011;2694;48.954;8.928;2023-07-20T05:14:06;4.53;;;2.27;;
5343;SDS011;2694;48.954;8.928;2023-07-20T05:16:35;5.77;;;2.10;;
5343;SDS011;2694;48.954;8.928;2023-07-20T05:19:02;5.22;;;1.92;;
5343;SDS011;2694;48.954;8.928;2023-07-20T05:21:28;4.13;;;2.00;;
5343;SDS011;2694;48.954;8.928;2023-07-20T05:23:55;3.20;;;1.48;;
5343;SDS011;2694;48.954;8.928;2023-07-20T05:26:22;5.85;;;1.70;;
5343;SDS011;2694;48.954;8.928;2023-07-20T05:28:49;10.82;;;2.03;;
5343;SDS011;2694;48.954;8.928;2023-07-20T05:31:15;6.00;;;2.25;;
5343;SDS011;2694;48.954;8.928;2023-07-20T05:33:44;3.45;;;1.83;;
5343;SDS011;2694;48.954;8.928;2023-07-20T05:36:11;5.20;;;2.53;;
5343;SDS011;2694;48.954;8.928;2023-07-20T05:38:37;4.60;;;1.90;;
5343;SDS011;2694;48.954;8.928;2023-07-20T05:41:04;4.40;;;1.70;;
5343;SDS011;2694;48.954;8.928;2023-07-20T05:43:32;7.00;;;2.00;;
5343;SDS011;2694;48.954;8.928;2023-07-20T05:45:59;4.40;;;1.90;;
5343;SDS011;2694;48.954;8.928;2023-07-20T05:48:26;3.28;;;1.65;;
5343;SDS011;2694;48.954;8.928;2023-07-20T05:50:54;5.40;;;1.70;;
5343;SDS011;2694;48.954;8.928;2023-07-20T05:53:21;4.93;;;1.83;;
5343;SDS011;2694;48.954;8.928;2023-07-20T05:55:51;4.00;;;2.00;;
5343;SDS011;2694;48.954;8.928;2023-07-20T05:58:18;3.63;;;1.80;;
5343;SDS011;2694;48.954;8.928;2023-07-20T06:00:47;7.18;;;2.00;;
5343;SDS011;2694;48.954;8.928;2023-07-20T06:03:14;6.28;;;2.10;;
5343;SDS011;2694;48.954;8.928;2023-07-20T06:05:42;4.82;;;1.88;;
5343;SDS011;2694;48.954;8.928;2023-07-20T06:08:10;4.40;;;1.70;;
5343;SDS011;2694;48.954;8.928;2023-07-20T06:10:37;3.95;;;2.25;;
5343;SDS011;2694;48.954;8.928;2023-07-20T06:13:03;3.50;;;1.70;;
5343;SDS011;2694;48.954;8.928;2023-07-20T06:15:31;3.63;;;1.70;;
5343;SDS011;2694;48.954;8.928;2023-07-20T06:18:00;4.28;;;1.80;;
5343;SDS011;2694;48.954;8.928;2023-07-20T06:20:27;8.18;;;1.60;;
5343;SDS011;2694;48.954;8.928;2023-07-20T06:22:53;5.25;;;1.80;;
5343;SDS011;2694;48.954;8.928;2023-07-20T06:25:21;5.85;;;1.73;;
5343;SDS011;2694;48.954;8.928;2023-07-20T06:27:49;4.03;;;1.60;;
5343;SDS011;2694;48.954;8.928;2023-07-20T06:30:16;6.00;;;1.90;;
5343;SDS011;2694;48.954;8.928;2023-07-20T06:32:43;5.00;;;1.40;;
5343;SDS011;2694;48.954;8.928;2023-07-20T06:35:10;3.22;;;1.58;;
5343;SDS011;2694;48.954;8.928;2023-07-20T06:37:36;5.88;;;1.88;;
5343;SDS011;2694;48.954;8.928;2023-07-20T06:40:04;4.03;;;1.20;;
5343;SDS011;2694;48.954;8.928;2023-07-20T06:42:35;4.10;;;1.48;;
5343;SDS011;2694;48.954;8.928;2023-07-20T06:45:02;3.10;;;1.33;;
5343;SDS011;2694;48.954;8.928;2023-07-20T06:47:29;8.38;;;1.38;;
5343;SDS011;2694;48.954;8.928;2023-07-20T06:49:56;5.50;;;2.10;;
5343;SDS011;2694;48.954;8.928;2023-07-20T06:52:23;4.25;;;1.35;;
5343;SDS011;2694;48.954;8.928;2023-07-20T06:54:49;4.50;;;1.50;;
5343;SDS011;2694;48.954;8.928;2023-07-20T06:57:16;3.60;;;1.20;;
5343;SDS011;2694;48.954;8.928;2023-07-20T06:59:44;4.40;;;1.70;;
5343;SDS011;2694;48.954;8.928;2023-07-20T07:02:11;6.40;;;1.67;;
5343;SDS011;2694;48.954;8.928;2023-07-20T07:04:39;4.90;;;1.60;;
5343;SDS011;2694;48.954;8.928;2023-07-20T07:07:05;4.40;;;1.50;;
5343;SDS011;2694;48.954;8.928;2023-07-20T07:09:32;3.80;;;1.30;;
5343;SDS011;2694;48.954;8.928;2023-07-20T07:11:59;4.38;;;1.60;;
5343;SDS011;2694;48.954;8.928;2023-07-20T07:14:26;6.32;;;1.40;;
5343;SDS011;2694;48.954;8.928;2023-07-20T07:16:54;4.05;;;1.50;;
5343;SDS011;2694;48.954;8.928;2023-07-20T07:19:21;7.43;;;1.83;;
5343;SDS011;2694;48.954;8.928;2023-07-20T07:21:47;5.22;;;1.70;;
5343;SDS011;2694;48.954;8.928;2023-07-20T07:24:14;3.90;;;1.70;;
5343;SDS011;2694;48.954;8.928;2023-07-20T07:26:41;3.75;;;1.40;;
5343;SDS011;2694;48.954;8.928;2023-07-20T07:29:08;5.97;;;1.65;;
5343;SDS011;2694;48.954;8.928;2023-07-20T07:31:34;4.07;;;1.50;;
5343;SDS011;2694;48.954;8.928;2023-07-20T07:34:03;3.63;;;1.90;;
5343;SDS011;2694;48.954;8.928;2023-07-20T07:36:32;5.63;;;1.60;;
5343;SDS011;2694;48.954;8.928;2023-07-20T07:38:59;8.40;;;1.60;;
5343;SDS011;2694;48.954;8.928;2023-07-20T07:41:26;5.80;;;1.60;;
5343;SDS011;2694;48.954;8.928;2023-07-20T07:43:53;4.25;;;1.65;;
5343;SDS011;2694;48.954;8.928;2023-07-20T07:46:19;5.00;;;1.40;;
5343;SDS011;2694;48.954;8.928;2023-07-20T07:48:46;4.45;;;1.60;;
5343;SDS011;2694;48.954;8.928;2023-07-20T07:51:14;3.90;;;1.45;;
5343;SDS011;2694;48.954;8.928;2023-07-20T07:53:41;5.82;;;1.95;;
5343;SDS011;2694;48.954;8.928;2023-07-20T07:56:08;5.20;;;1.80;;
5343;SDS011;2694;48.954;8.928;2023-07-20T07:58:35;4.07;;;1.48;;
5343;SDS011;2694;48.954;8.928;2023-07-20T08:01:02;6.70;;;1.52;;
5343;SDS011;2694;48.954;8.928;2023-07-20T08:03:29;7.55;;;1.80;;
5343;SDS011;2694;48.954;8.928;2023-07-20T08:05:56;4.57;;;1.80;;
5343;SDS011;2694;48.954;8.928;2023-07-20T08:08:25;3.15;;;1.30;;
5343;SDS011;2694;48.954;8.928;2023-07-20T08:10:52;4.68;;;1.50;;
5343;SDS011;2694;48.954;8.928;2023-07-20T08:13:20;5.13;;;1.50;;
5343;SDS011;2694;48.954;8.928;2023-07-20T08:15:48;3.25;;;1.30;;
5343;SDS011;2694;48.954;8.928;2023-07-20T08:18:16;3.92;;;1.42;;
5343;SDS011;2694;48.954;8.928;2023-07-20T08:20:44;4.97;;;1.70;;
5343;SDS011;2694;48.954;8.928;2023-07-20T08:23:11;4.57;;;1.23;;
5343;SDS011;2694;48.954;8.928;2023-07-20T08:25:39;3.28;;;1.60;;
5343;SDS011;2694;48.954;8.928;2023-07-20T08:28:08;3.05;;;1.50;;
5343;SDS011;2694;48.954;8.928;2023-07-20T08:30:39;3.95;;;1.40;;
5343;SDS011;2694;48.954;8.928;2023-07-20T08:33:07;5.25;;;1.50;;
5343;SDS011;2694;48.954;8.928;2023-07-20T08:35:34;4.90;;;1.10;;
5343;SDS011;2694;48.954;8.928;2023-07-20T08:38:00;2.97;;;1.30;;
5343;SDS011;2694;48.954;8.928;2023-07-20T08:40:29;3.30;;;1.20;;
5343;SDS011;2694;48.954;8.928;2023-07-20T08:42:57;3.65;;;1.30;;
5343;SDS011;2694;48.954;8.928;2023-07-20T08:45:26;3.97;;;1.00;;
5343;SDS011;2694;48.954;8.928;2023-07-20T08:47:55;3.63;;;1.30;;
5343;SDS011;2694;48.954;8.928;2023-07-20T08:50:25;2.83;;;1.45;;
5343;SDS011;2694;48.954;8.928;2023-07-20T08:52:54;2.80;;;1.40;;
5343;SDS011;2694;48.954;8.928;2023-07-20T08:55:24;3.63;;;1.30;;
5343;SDS011;2694;48.954;8.928;2023-07-20T08:57:52;2.40;;;1.00;;
5343;SDS011;2694;48.954;8.928;2023-07-20T09:00:22;7.05;;;1.25;;
5343;SDS011;2694;48.954;8.928;2023-07-20T09:02:51;6.60;;;1.20;;
5343;SDS011;2694;48.954;8.928;2023-07-20T09:05:18;2.27;;;1.20;;
5343;SDS011;2694;48.954;8.928;2023-07-20T09:07:45;1.83;;;0.88;;
5343;SDS011;2694;48.954;8.928;2023-07-20T09:10:12;3.80;;;0.90;;
5343;SDS011;2694;48.954;8.928;2023-07-20T09:12:39;2.42;;;1.20;;
5343;SDS011;2694;48.954;8.928;2023-07-20T09:15:07;4.43;;;1.10;;
5343;SDS011;2694;48.954;8.928;2023-07-20T09:17:37;4.18;;;1.10;;
5343;SDS011;2694;48.954;8.928;2023-07-20T09:20:04;2.70;;;1.10;;
5343;SDS011;2694;48.954;8.928;2023-07-20T09:22:36;3.50;;;1.50;;
5343;SDS011;2694;48.954;8.928;2023-07-20T09:25:05;2.42;;;1.10;;
5343;SDS011;2694;48.954;8.928;2023-07-20T09:27:36;2.63;;;0.90;;
5343;SDS011;2694;48.954;8.928;2023-07-20T09:30:04;1.65;;;0.90;;
5343;SDS011;2694;48.954;8.928;2023-07-20T09:32:34;2.25;;;0.80;;
5343;SDS011;2694;48.954;8.928;2023-07-20T09:35:07;3.00;;;0.90;;
5343;SDS011;2694;48.954;8.928;2023-07-20T09:37:39;2.92;;;1.10;;
5343;SDS011;2694;48.954;8.928;2023-07-20T09:40:08;4.95;;;1.25;;
5343;SDS011;2694;48.954;8.928;2023-07-20T09:42:36;2.42;;;0.90;;
5343;SDS011;2694;48.954;8.928;2023-07-20T09:45:06;4.10;;;0.90;;
5343;SDS011;2694;48.954;8.928;2023-07-20T09:47:34;2.88;;;1.05;;
5343;SDS011;2694;48.954;8.928;2023-07-20T09:50:04;3.70;;;1.08;;
5343;SDS011;2694;48.954;8.928;2023-07-20T09:52:35;4.85;;;1.20;;
5343;SDS011;2694;48.954;8.928;2023-07-20T09:55:04;3.28;;;1.10;;
5343;SDS011;2694;48.954;8.928;2023-07-20T09:57:32;3.33;;;0.80;;
5343;SDS011;2694;48.954;8.928;2023-07-20T10:00:00;1.67;;;0.90;;
5343;SDS011;2694;48.954;8.928;2023-07-20T10:02:30;3.37;;;1.00;;
5343;SDS011;2694;48.954;8.928;2023-07-20T10:05:00;2.75;;;0.90;;
5343;SDS011;2694;48.954;8.928;2023-07-20T10:07:30;2.88;;;1.08;;
5343;SDS011;2694;48.954;8.928;2023-07-20T10:09:59;1.75;;;0.85;;
5343;SDS011;2694;48.954;8.928;2023-07-20T10:12:28;3.70;;;1.00;;
5343;SDS011;2694;48.954;8.928;2023-07-20T10:14:57;2.07;;;0.93;;
5343;SDS011;2694;48.954;8.928;2023-07-20T10:17:31;2.72;;;0.88;;
5343;SDS011;2694;48.954;8.928;2023-07-20T10:19:58;3.00;;;0.85;;
5343;SDS011;2694;48.954;8.928;2023-07-20T10:22:33;2.80;;;1.00;;
5343;SDS011;2694;48.954;8.928;2023-07-20T10:25:02;3.42;;;1.00;;
5343;SDS011;2694;48.954;8.928;2023-07-20T10:27:30;4.47;;;1.20;;
5343;SDS011;2694;48.954;8.928;2023-07-20T10:29:57;1.17;;;0.57;;
5343;SDS011;2694;48.954;8.928;2023-07-20T10:32:26;3.20;;;1.00;;
5343;SDS011;2694;48.954;8.928;2023-07-20T10:34:55;2.58;;;1.05;;
5343;SDS011;2694;48.954;8.928;2023-07-20T10:43:04;1.98;;;0.80;;
5343;SDS011;2694;48.954;8.928;2023-07-20T10:45:33;3.63;;;1.10;;
5343;SDS011;2694;48.954;8.928;2023-07-20T10:48:06;4.20;;;1.00;;
5343;SDS011;2694;48.954;8.928;2023-07-20T10:50:38;3.40;;;1.25;;
5343;SDS011;2694;48.954;8.928;2023-07-20T10:53:17;3.45;;;0.80;;
5343;SDS011;2694;48.954;8.928;2023-07-20T10:55:45;1.87;;;0.80;;
5343;SDS011;2694;48.954;8.928;2023-07-20T10:58:15;5.70;;;0.98;;
5343;SDS011;2694;48.954;8.928;2023-07-20T11:00:55;2.70;;;0.80;;
5343;SDS011;2694;48.954;8.928;2023-07-20T11:03:28;2.10;;;0.90;;
5343;SDS011;2694;48.954;8.928;2023-07-20T11:05:56;2.70;;;1.20;;
5343;SDS011;2694;48.954;8.928;2023-07-20T11:08:41;3.00;;;1.30;;
5343;SDS011;2694;48.954;8.928;2023-07-20T11:11:24;3.35;;;1.02;;
5343;SDS011;2694;48.954;8.928;2023-07-20T11:13:56;2.60;;;1.00;;
5343;SDS011;2694;48.954;8.928;2023-07-20T11:16:39;4.80;;;1.10;;
5343;SDS011;2694;48.954;8.928;2023-07-20T11:19:14;3.10;;;1.00;;
5343;SDS011;2694;48.954;8.928;2023-07-20T11:21:43;3.60;;;0.98;;
5343;SDS011;2694;48.954;8.928;2023-07-20T11:24:12;1.73;;;0.80;;
5343;SDS011;2694;48.954;8.928;2023-07-20T11:26:39;4.60;;;1.30;;
5343;SDS011;2694;48.954;8.928;2023-07-20T11:29:07;3.70;;;1.35;;
5343;SDS011;2694;48.954;8.928;2023-07-20T11:31:35;4.23;;;1.13;;
5343;SDS011;2694;48.954;8.928;2023-07-20T11:34:02;1.70;;;0.80;;
5343;SDS011;2694;48.954;8.928;2023-07-20T11:36:29;3.80;;;1.13;;
5343;SDS011;2694;48.954;8.928;2023-07-20T11:38:56;2.80;;;1.00;;
5343;SDS011;2694;48.954;8.928;2023-07-20T11:41:25;3.55;;;0.88;;
5343;SDS011;2694;48.954;8.928;2023-07-20T11:43:53;1.90;;;0.80;;
5343;SDS011;2694;48.954;8.928;2023-07-20T11:46:20;2.95;;;0.90;;
5343;SDS011;2694;48.954;8.928;2023-07-20T11:48:47;2.40;;;1.00;;
5343;SDS011;2694;48.954;8.928;2023-07-20T11:51:14;2.17;;;0.90;;
5343;SDS011;2694;48.954;8.928;2023-07-20T11:53:42;2.90;;;1.00;;
5343;SDS011;2694;48.954;8.928;2023-07-20T11:56:11;4.30;;;1.23;;
5343;SDS011;2694;48.954;8.928;2023-07-20T11:58:43;3.35;;;1.10;;
5343;SDS011;2694;48.954;8.928;2023-07-20T12:01:11;3.53;;;0.90;;
5343;SDS011;2694;48.954;8.928;2023-07-20T12:03:38;2.22;;;0.80;;
5343;SDS011;2694;48.954;8.928;2023-07-20T12:06:08;3.85;;;1.00;;
5343;SDS011;2694;48.954;8.928;2023-07-20T12:08:37;2.78;;;0.80;;
5343;SDS011;2694;48.954;8.928;2023-07-20T12:11:04;3.60;;;0.85;;
5343;SDS011;2694;48.954;8.928;2023-07-20T12:13:38;2.63;;;1.00;;
5343;SDS011;2694;48.954;8.928;2023-07-20T12:16:10;3.80;;;1.20;;
5343;SDS011;2694;48.954;8.928;2023-07-20T12:18:38;3.20;;;0.95;;
5343;SDS011;2694;48.954;8.928;2023-07-20T12:21:05;2.40;;;1.00;;
5343;SDS011;2694;48.954;8.928;2023-07-20T12:23:37;3.13;;;1.08;;
5343;SDS011;2694;48.954;8.928;2023-07-20T12:26:08;2.63;;;1.00;;
5343;SDS011;2694;48.954;8.928;2023-07-20T12:28:39;4.20;;;1.13;;
5343;SDS011;2694;48.954;8.928;2023-07-20T12:31:07;4.10;;;0.80;;
5343;SDS011;2694;48.954;8.928;2023-07-20T12:33:36;2.15;;;0.70;;
5343;SDS011;2694;48.954;8.928;2023-07-20T12:36:03;2.83;;;0.95;;
5343;SDS011;2694;48.954;8.928;2023-07-20T12:38:31;2.90;;;0.90;;
5343;SDS011;2694;48.954;8.928;2023-07-20T12:40:58;3.43;;;0.97;;
5343;SDS011;2694;48.954;8.928;2023-07-20T12:43:26;5.53;;;0.90;;
5343;SDS011;2694;48.954;8.928;2023-07-20T12:45:54;2.30;;;0.80;;
5343;SDS011;2694;48.954;8.928;2023-07-20T12:48:21;2.72;;;1.15;;
5343;SDS011;2694;48.954;8.928;2023-07-20T12:50:49;3.10;;;1.20;;
5343;SDS011;2694;48.954;8.928;2023-07-20T12:53:16;3.40;;;1.10;;
5343;SDS011;2694;48.954;8.928;2023-07-20T12:55:43;32.10;;;2.60;;
5343;SDS011;2694;48.954;8.928;2023-07-20T12:58:11;6.07;;;1.00;;
5343;SDS011;2694;48.954;8.928;2023-07-20T13:00:38;8.48;;;1.20;;
5343;SDS011;2694;48.954;8.928;2023-07-20T13:03:05;3.72;;;1.10;;
5343;SDS011;2694;48.954;8.928;2023-07-20T13:05:33;6.00;;;1.00;;
5343;SDS011;2694;48.954;8.928;2023-07-20T13:08:02;3.03;;;0.73;;
5343;SDS011;2694;48.954;8.928;2023-07-20T13:10:30;2.33;;;1.17;;
5343;SDS011;2694;48.954;8.928;2023-07-20T13:12:57;2.30;;;0.90;;
5343;SDS011;2694;48.954;8.928;2023-07-20T13:15:24;3.38;;;0.85;;
5343;SDS011;2694;48.954;8.928;2023-07-20T13:17:57;4.47;;;1.10;;
5343;SDS011;2694;48.954;8.928;2023-07-20T13:20:24;1.90;;;0.80;;
5343;SDS011;2694;48.954;8.928;2023-07-20T13:22:51;1.52;;;0.60;;
5343;SDS011;2694;48.954;8.928;2023-07-20T13:25:21;2.50;;;0.83;;
5343;SDS011;2694;48.954;8.928;2023-07-20T13:27:48;2.60;;;1.00;;
5343;SDS011;2694;48.954;8.928;2023-07-20T13:30:15;1.70;;;0.90;;
5343;SDS011;2694;48.954;8.928;2023-07-20T13:32:42;4.80;;;0.80;;
5343;SDS011;2694;48.954;8.928;2023-07-20T13:35:09;2.50;;;1.00;;
5343;SDS011;2694;48.954;8.928;2023-07-20T13:37:36;4.20;;;0.70;;
5343;SDS011;2694;48.954;8.928;2023-07-20T13:40:05;2.75;;;1.00;;
5343;SDS011;2694;48.954;8.928;2023-07-20T13:42:39;2.72;;;1.05;;
5343;SDS011;2694;48.954;8.928;2023-07-20T13:45:06;4.60;;;0.70;;
5343;SDS011;2694;48.954;8.928;2023-07-20T13:47:33;2.95;;;1.20;;
5343;SDS011;2694;48.954;8.928;2023-07-20T13:50:00;5.25;;;1.00;;
5343;SDS011;2694;48.954;8.928;2023-07-20T13:52:27;2.40;;;0.70;;
5343;SDS011;2694;48.954;8.928;2023-07-20T13:54:54;4.20;;;1.00;;
5343;SDS011;2694;48.954;8.928;2023-07-20T13:57:21;2.10;;;0.65;;
5343;SDS011;2694;48.954;8.928;2023-07-20T13:59:49;3.22;;;0.70;;
5343;SDS011;2694;48.954;8.928;2023-07-20T14:02:15;3.33;;;0.70;;
5343;SDS011;2694;48.954;8.928;2023-07-20T14:04:42;2.80;;;0.68;;
5343;SDS011;2694;48.954;8.928;2023-07-20T14:07:09;4.20;;;1.00;;
5343;SDS011;2694;48.954;8.928;2023-07-20T14:09:36;2.55;;;0.85;;
5343;SDS011;2694;48.954;8.928;2023-07-20T14:12:03;1.75;;;0.75;;
5343;SDS011;2694;48.954;8.928;2023-07-20T14:14:30;2.00;;;0.90;;
5343;SDS011;2694;48.954;8.928;2023-07-20T14:16:58;2.72;;;1.00;;
5343;SDS011;2694;48.954;8.928;2023-07-20T14:19:25;1.60;;;0.85;;
5343;SDS011;2694;48.954;8.928;2023-07-20T14:21:52;2.30;;;0.70;;
5343;SDS011;2694;48.954;8.928;2023-07-20T14:24:20;1.85;;;0.65;;
5343;SDS011;2694;48.954;8.928;2023-07-20T14:26:46;2.45;;;1.08;;
5343;SDS011;2694;48.954;8.928;2023-07-20T14:29:14;3.73;;;0.90;;
5343;SDS011;2694;48.954;8.928;2023-07-20T14:31:40;3.20;;;0.90;;
5343;SDS011;2694;48.954;8.928;2023-07-20T14:34:08;3.25;;;0.90;;
5343;SDS011;2694;48.954;8.928;2023-07-20T14:36:35;3.30;;;1.10;;
5343;SDS011;2694;48.954;8.928;2023-07-20T14:39:02;1.90;;;0.80;;
5343;SDS011;2694;48.954;8.928;2023-07-20T14:41:30;1.63;;;0.60;;
5343;SDS011;2694;48.954;8.928;2023-07-20T14:43:59;1.73;;;0.60;;
5343;SDS011;2694;48.954;8.928;2023-07-20T14:46:26;2.47;;;0.70;;
5343;SDS011;2694;48.954;8.928;2023-07-20T14:48:52;3.30;;;0.80;;
5343;SDS011;2694;48.954;8.928;2023-07-20T14:51:20;4.22;;;1.10;;
5343;SDS011;2694;48.954;8.928;2023-07-20T14:53:47;2.03;;;0.60;;
5343;SDS011;2694;48.954;8.928;2023-07-20T14:56:14;4.03;;;0.63;;
5343;SDS011;2694;48.954;8.928;2023-07-20T14:58:41;1.20;;;0.47;;
5343;SDS011;2694;48.954;8.928;2023-07-20T15:01:07;2.00;;;0.80;;
5343;SDS011;2694;48.954;8.928;2023-07-20T15:03:34;1.55;;;0.57;;
5343;SDS011;2694;48.954;8.928;2023-07-20T15:06:01;1.80;;;0.80;;
5343;SDS011;2694;48.954;8.928;2023-07-20T15:08:30;6.10;;;1.70;;
5343;SDS011;2694;48.954;8.928;2023-07-20T15:10:56;2.72;;;0.70;;
5343;SDS011;2694;48.954;8.928;2023-07-20T15:13:23;2.10;;;0.80;;
5343;SDS011;2694;48.954;8.928;2023-07-20T15:15:50;2.40;;;0.70;;
5343;SDS011;2694;48.954;8.928;2023-07-20T15:18:17;1.77;;;0.70;;
5343;SDS011;2694;48.954;8.928;2023-07-20T15:20:44;2.80;;;1.10;;
5343;SDS011;2694;48.954;8.928;2023-07-20T15:23:12;3.25;;;0.80;;
5343;SDS011;2694;48.954;8.928;2023-07-20T15:25:40;2.90;;;0.70;;
5343;SDS011;2694;48.954;8.928;2023-07-20T15:28:07;1.67;;;0.60;;
5343;SDS011;2694;48.954;8.928;2023-07-20T15:30:34;2.00;;;0.80;;